sensor_id;sensor_type;location;lat;lon;timestamp;temperature;humidity
56478;DHT22;42382;53.210;5.772;2023-05-10T00:01:25;12.50;92.90
56478;DHT22;42382;53.210;5.772;2023-05-10T00:03:50;12.50;92.90
56478;DHT22;42382;53.210;5.772;2023-05-10T00:06:16;12.50;92.90
56478;DHT22;42382;53.210;5.772;2023-05-10T00:08:42;12.50;92.90
56478;DHT22;42382;53.210;5.772;2023-05-10T00:11:07;12.50;92.90
56478;DHT22;42382;53.210;5.772;2023-05-10T00:13:33;12.50;92.90
56478;DHT22;42382;53.210;5.772;2023-05-10T00:15:59;12.60;92.90
56478;DHT22;42382;53.210;5.772;2023-05-10T00:18:28;12.60;92.90
56478;DHT22;42382;53.210;5.772;2023-05-10T00:20:53;12.60;92.90
56478;DHT22;42382;53.210;5.772;2023-05-10T00:23:19;12.60;92.90
56478;DHT22;42382;53.210;5.772;2023-05-10T00:25:44;12.60;92.90
56478;DHT22;42382;53.210;5.772;2023-05-10T00:28:10;12.50;92.80
56478;DHT22;42382;53.210;5.772;2023-05-10T00:30:36;12.50;92.90
56478;DHT22;42382;53.210;5.772;2023-05-10T00:33:01;12.40;92.80
56478;DHT22;42382;53.210;5.772;2023-05-10T00:35:28;12.40;92.90
56478;DHT22;42382;53.210;5.772;2023-05-10T00:37:53;12.40;92.90
56478;DHT22;42382;53.210;5.772;2023-05-10T00:40:19;12.40;92.90
56478;DHT22;42382;53.210;5.772;2023-05-10T00:42:45;12.40;93.00
56478;DHT22;42382;53.210;5.772;2023-05-10T00:45:10;12.40;93.00
56478;DHT22;42382;53.210;5.772;2023-05-10T00:47:37;12.40;93.00
56478;DHT22;42382;53.210;5.772;2023-05-10T00:50:03;12.40;92.90
56478;DHT22;42382;53.210;5.772;2023-05-10T00:52:30;12.40;92.90
56478;DHT22;42382;53.210;5.772;2023-05-10T00:54:56;12.40;93.00
56478;DHT22;42382;53.210;5.772;2023-05-10T00:57:23;12.30;93.00
56478;DHT22;42382;53.210;5.772;2023-05-10T00:59:49;12.30;93.00
56478;DHT22;42382;53.210;5.772;2023-05-10T01:02:15;12.30;93.10
56478;DHT22;42382;53.210;5.772;2023-05-10T01:04:41;12.30;93.10
56478;DHT22;42382;53.210;5.772;2023-05-10T01:07:07;12.30;93.10
56478;DHT22;42382;53.210;5.772;2023-05-10T01:09:33;12.30;93.10
56478;DHT22;42382;53.210;5.772;2023-05-10T01:12:02;12.30;93.10
56478;DHT22;42382;53.210;5.772;2023-05-10T01:14:29;12.30;93.20
56478;DHT22;42382;53.210;5.772;2023-05-10T01:16:55;12.20;93.20
56478;DHT22;42382;53.210;5.772;2023-05-10T01:19:28;12.20;93.30
56478;DHT22;42382;53.210;5.772;2023-05-10T01:22:13;12.10;93.40
56478;DHT22;42382;53.210;5.772;2023-05-10T01:24:59;12.10;93.40
56478;DHT22;42382;53.210;5.772;2023-05-10T01:33:30;12.20;93.50
56478;DHT22;42382;53.210;5.772;2023-05-10T01:36:51;12.20;93.40
56478;DHT22;42382;53.210;5.772;2023-05-10T01:42:17;12.20;93.50
56478;DHT22;42382;53.210;5.772;2023-05-10T01:45:14;12.30;93.50
56478;DHT22;42382;53.210;5.772;2023-05-10T01:47:46;12.30;93.40
56478;DHT22;42382;53.210;5.772;2023-05-10T01:50:18;12.30;93.50
56478;DHT22;42382;53.210;5.772;2023-05-10T01:52:49;12.30;93.50
56478;DHT22;42382;53.210;5.772;2023-05-10T01:55:18;12.30;93.50
56478;DHT22;42382;53.210;5.772;2023-05-10T01:57:46;12.30;93.50
56478;DHT22;42382;53.210;5.772;2023-05-10T02:00:14;12.30;93.40
56478;DHT22;42382;53.210;5.772;2023-05-10T02:02:44;12.30;93.40
56478;DHT22;42382;53.210;5.772;2023-05-10T02:05:12;12.30;93.40
56478;DHT22;42382;53.210;5.772;2023-05-10T02:07:39;12.30;93.50
56478;DHT22;42382;53.210;5.772;2023-05-10T02:10:06;12.30;93.40
56478;DHT22;42382;53.210;5.772;2023-05-10T02:12:36;12.30;93.40
56478;DHT22;42382;53.210;5.772;2023-05-10T02:15:05;12.40;93.40
56478;DHT22;42382;53.210;5.772;2023-05-10T02:17:33;12.40;93.40
56478;DHT22;42382;53.210;5.772;2023-05-10T02:20:01;12.30;93.40
56478;DHT22;42382;53.210;5.772;2023-05-10T02:22:29;12.40;93.30
56478;DHT22;42382;53.210;5.772;2023-05-10T02:24:59;12.40;93.30
56478;DHT22;42382;53.210;5.772;2023-05-10T02:27:27;12.40;93.30
56478;DHT22;42382;53.210;5.772;2023-05-10T02:29:54;12.40;93.30
56478;DHT22;42382;53.210;5.772;2023-05-10T02:32:21;12.40;93.20
56478;DHT22;42382;53.210;5.772;2023-05-10T02:34:48;12.40;93.20
56478;DHT22;42382;53.210;5.772;2023-05-10T02:37:19;12.40;93.20
56478;DHT22;42382;53.210;5.772;2023-05-10T02:39:47;12.40;93.10
56478;DHT22;42382;53.210;5.772;2023-05-10T02:42:16;12.40;93.10
56478;DHT22;42382;53.210;5.772;2023-05-10T02:44:43;12.40;93.10
56478;DHT22;42382;53.210;5.772;2023-05-10T02:47:11;12.40;93.10
56478;DHT22;42382;53.210;5.772;2023-05-10T02:49:36;12.40;93.10
56478;DHT22;42382;53.210;5.772;2023-05-10T02:52:05;12.40;93.10
56478;DHT22;42382;53.210;5.772;2023-05-10T02:54:36;12.30;93.10
56478;DHT22;42382;53.210;5.772;2023-05-10T02:57:06;12.30;93.10
56478;DHT22;42382;53.210;5.772;2023-05-10T02:59:32;12.30;93.10
56478;DHT22;42382;53.210;5.772;2023-05-10T03:01:59;12.30;93.10
56478;DHT22;42382;53.210;5.772;2023-05-10T03:04:25;12.30;93.10
56478;DHT22;42382;53.210;5.772;2023-05-10T03:06:51;12.30;93.10
56478;DHT22;42382;53.210;5.772;2023-05-10T03:09:18;12.30;93.30
56478;DHT22;42382;53.210;5.772;2023-05-10T03:12:17;12.30;93.20
56478;DHT22;42382;53.210;5.772;2023-05-10T03:17:56;12.30;93.30
56478;DHT22;42382;53.210;5.772;2023-05-10T03:20:26;12.30;93.20
56478;DHT22;42382;53.210;5.772;2023-05-10T03:23:07;12.30;93.20
56478;DHT22;42382;53.210;5.772;2023-05-10T03:25:37;12.30;93.30
56478;DHT22;42382;53.210;5.772;2023-05-10T03:28:04;12.30;93.20
56478;DHT22;42382;53.210;5.772;2023-05-10T03:30:30;12.30;93.20
56478;DHT22;42382;53.210;5.772;2023-05-10T03:32:57;12.30;93.30
56478;DHT22;42382;53.210;5.772;2023-05-10T03:35:23;12.20;93.20
56478;DHT22;42382;53.210;5.772;2023-05-10T03:37:49;12.30;93.20
56478;DHT22;42382;53.210;5.772;2023-05-10T03:40:14;12.20;93.30
56478;DHT22;42382;53.210;5.772;2023-05-10T03:42:41;12.30;93.30
56478;DHT22;42382;53.210;5.772;2023-05-10T03:45:07;12.20;93.30
56478;DHT22;42382;53.210;5.772;2023-05-10T03:47:33;12.20;93.30
56478;DHT22;42382;53.210;5.772;2023-05-10T03:49:58;12.20;93.30
56478;DHT22;42382;53.210;5.772;2023-05-10T03:52:27;12.20;93.30
56478;DHT22;42382;53.210;5.772;2023-05-10T03:54:52;12.20;93.30
56478;DHT22;42382;53.210;5.772;2023-05-10T03:57:19;12.30;93.30
56478;DHT22;42382;53.210;5.772;2023-05-10T03:59:45;12.30;93.30
56478;DHT22;42382;53.210;5.772;2023-05-10T04:02:10;12.20;93.30
56478;DHT22;42382;53.210;5.772;2023-05-10T04:04:36;12.30;93.30
56478;DHT22;42382;53.210;5.772;2023-05-10T04:07:02;12.20;93.20
56478;DHT22;42382;53.210;5.772;2023-05-10T04:09:28;12.20;93.20
56478;DHT22;42382;53.210;5.772;2023-05-10T04:11:53;12.20;93.30
56478;DHT22;42382;53.210;5.772;2023-05-10T04:14:20;12.20;93.30
56478;DHT22;42382;53.210;5.772;2023-05-10T04:16:46;12.20;93.30
56478;DHT22;42382;53.210;5.772;2023-05-10T04:19:12;12.20;93.30
56478;DHT22;42382;53.210;5.772;2023-05-10T04:21:37;12.20;93.40
56478;DHT22;42382;53.210;5.772;2023-05-10T04:24:03;12.20;93.30
56478;DHT22;42382;53.210;5.772;2023-05-10T04:26:30;12.20;93.30
56478;DHT22;42382;53.210;5.772;2023-05-10T04:28:56;12.20;93.30
56478;DHT22;42382;53.210;5.772;2023-05-10T04:31:22;12.30;93.30
56478;DHT22;42382;53.210;5.772;2023-05-10T04:33:47;12.20;93.30
56478;DHT22;42382;53.210;5.772;2023-05-10T04:36:13;12.30;93.30
56478;DHT22;42382;53.210;5.772;2023-05-10T04:38:39;12.30;93.30
56478;DHT22;42382;53.210;5.772;2023-05-10T04:41:09;12.30;93.30
56478;DHT22;42382;53.210;5.772;2023-05-10T04:43:35;12.20;93.30
56478;DHT22;42382;53.210;5.772;2023-05-10T04:46:02;12.20;93.30
56478;DHT22;42382;53.210;5.772;2023-05-10T04:48:27;12.20;93.30
56478;DHT22;42382;53.210;5.772;2023-05-10T04:50:53;12.30;93.30
56478;DHT22;42382;53.210;5.772;2023-05-10T04:53:19;12.20;93.30
56478;DHT22;42382;53.210;5.772;2023-05-10T04:55:44;12.20;93.30
56478;DHT22;42382;53.210;5.772;2023-05-10T04:58:11;12.20;93.40
56478;DHT22;42382;53.210;5.772;2023-05-10T05:00:36;12.20;93.40
56478;DHT22;42382;53.210;5.772;2023-05-10T05:03:02;12.20;93.30
56478;DHT22;42382;53.210;5.772;2023-05-10T05:05:28;12.20;93.40
56478;DHT22;42382;53.210;5.772;2023-05-10T05:07:54;12.20;93.30
56478;DHT22;42382;53.210;5.772;2023-05-10T05:10:19;12.20;93.40
56478;DHT22;42382;53.210;5.772;2023-05-10T05:12:45;12.20;93.30
56478;DHT22;42382;53.210;5.772;2023-05-10T05:15:11;12.20;93.30
56478;DHT22;42382;53.210;5.772;2023-05-10T05:17:37;12.20;93.30
56478;DHT22;42382;53.210;5.772;2023-05-10T05:20:02;12.20;93.30
56478;DHT22;42382;53.210;5.772;2023-05-10T05:22:28;12.20;93.30
56478;DHT22;42382;53.210;5.772;2023-05-10T05:24:55;12.30;93.30
56478;DHT22;42382;53.210;5.772;2023-05-10T05:27:20;12.30;93.30
56478;DHT22;42382;53.210;5.772;2023-05-10T05:29:52;12.30;93.30
56478;DHT22;42382;53.210;5.772;2023-05-10T05:32:18;12.30;93.30
56478;DHT22;42382;53.210;5.772;2023-05-10T05:34:46;12.30;93.30
56478;DHT22;42382;53.210;5.772;2023-05-10T05:37:13;12.30;93.30
56478;DHT22;42382;53.210;5.772;2023-05-10T05:39:39;12.30;93.30
56478;DHT22;42382;53.210;5.772;2023-05-10T05:42:05;12.30;93.30
56478;DHT22;42382;53.210;5.772;2023-05-10T05:44:30;12.40;93.30
56478;DHT22;42382;53.210;5.772;2023-05-10T05:46:56;12.40;93.30
56478;DHT22;42382;53.210;5.772;2023-05-10T05:49:22;12.40;93.30
56478;DHT22;42382;53.210;5.772;2023-05-10T05:51:47;12.40;93.30
56478;DHT22;42382;53.210;5.772;2023-05-10T05:54:14;12.40;93.30
56478;DHT22;42382;53.210;5.772;2023-05-10T05:56:40;12.40;93.30
56478;DHT22;42382;53.210;5.772;2023-05-10T05:59:09;12.40;93.30
56478;DHT22;42382;53.210;5.772;2023-05-10T06:01:37;12.40;93.30
56478;DHT22;42382;53.210;5.772;2023-05-10T06:04:03;12.40;93.30
56478;DHT22;42382;53.210;5.772;2023-05-10T06:06:29;12.50;93.30
56478;DHT22;42382;53.210;5.772;2023-05-10T06:08:54;12.50;93.30
56478;DHT22;42382;53.210;5.772;2023-05-10T06:11:20;12.50;93.30
56478;DHT22;42382;53.210;5.772;2023-05-10T06:13:49;12.60;93.30
56478;DHT22;42382;53.210;5.772;2023-05-10T06:16:15;12.60;93.30
56478;DHT22;42382;53.210;5.772;2023-05-10T06:18:40;12.60;93.20
56478;DHT22;42382;53.210;5.772;2023-05-10T06:21:06;12.60;93.20
56478;DHT22;42382;53.210;5.772;2023-05-10T06:23:35;12.60;93.20
56478;DHT22;42382;53.210;5.772;2023-05-10T06:26:01;12.60;93.20
56478;DHT22;42382;53.210;5.772;2023-05-10T06:28:26;12.60;93.20
56478;DHT22;42382;53.210;5.772;2023-05-10T06:30:52;12.50;93.10
56478;DHT22;42382;53.210;5.772;2023-05-10T06:33:17;12.60;93.10
56478;DHT22;42382;53.210;5.772;2023-05-10T06:35:43;12.60;93.20
56478;DHT22;42382;53.210;5.772;2023-05-10T06:38:09;12.60;93.10
56478;DHT22;42382;53.210;5.772;2023-05-10T06:40:34;12.70;93.20
56478;DHT22;42382;53.210;5.772;2023-05-10T06:43:01;12.70;93.20
56478;DHT22;42382;53.210;5.772;2023-05-10T06:45:26;12.80;93.10
56478;DHT22;42382;53.210;5.772;2023-05-10T06:47:52;12.80;93.10
56478;DHT22;42382;53.210;5.772;2023-05-10T06:50:18;12.80;93.10
56478;DHT22;42382;53.210;5.772;2023-05-10T06:52:43;12.90;93.10
56478;DHT22;42382;53.210;5.772;2023-05-10T06:55:09;12.80;93.10
56478;DHT22;42382;53.210;5.772;2023-05-10T06:57:35;12.80;93.00
56478;DHT22;42382;53.210;5.772;2023-05-10T07:00:01;12.90;93.00
56478;DHT22;42382;53.210;5.772;2023-05-10T07:02:29;12.90;93.00
56478;DHT22;42382;53.210;5.772;2023-05-10T07:04:56;12.90;93.00
56478;DHT22;42382;53.210;5.772;2023-05-10T07:07:21;12.90;93.00
56478;DHT22;42382;53.210;5.772;2023-05-10T07:09:47;12.90;92.90
56478;DHT22;42382;53.210;5.772;2023-05-10T07:12:13;12.90;92.90
56478;DHT22;42382;53.210;5.772;2023-05-10T07:14:38;12.90;92.80
56478;DHT22;42382;53.210;5.772;2023-05-10T07:17:04;12.80;92.80
56478;DHT22;42382;53.210;5.772;2023-05-10T07:19:29;12.80;92.70
56478;DHT22;42382;53.210;5.772;2023-05-10T07:21:55;12.80;92.70
56478;DHT22;42382;53.210;5.772;2023-05-10T07:24:21;12.80;92.80
56478;DHT22;42382;53.210;5.772;2023-05-10T08:03:48;12.80;92.70
56478;DHT22;42382;53.210;5.772;2023-05-10T08:06:15;13.60;92.50
56478;DHT22;42382;53.210;5.772;2023-05-10T08:08:41;13.60;92.30
56478;DHT22;42382;53.210;5.772;2023-05-10T08:11:07;13.60;92.30
56478;DHT22;42382;53.210;5.772;2023-05-10T08:13:33;13.60;92.10
56478;DHT22;42382;53.210;5.772;2023-05-10T08:15:59;13.60;92.10
56478;DHT22;42382;53.210;5.772;2023-05-10T08:18:25;13.60;91.90
56478;DHT22;42382;53.210;5.772;2023-05-10T08:20:51;13.60;91.90
56478;DHT22;42382;53.210;5.772;2023-05-10T08:23:17;13.70;91.80
56478;DHT22;42382;53.210;5.772;2023-05-10T08:25:42;13.70;91.80
56478;DHT22;42382;53.210;5.772;2023-05-10T08:28:08;13.70;91.80
56478;DHT22;42382;53.210;5.772;2023-05-10T08:30:33;13.60;91.70
56478;DHT22;42382;53.210;5.772;2023-05-10T08:32:59;13.60;91.70
56478;DHT22;42382;53.210;5.772;2023-05-10T08:35:25;13.70;91.70
56478;DHT22;42382;53.210;5.772;2023-05-10T08:37:51;13.70;91.50
56478;DHT22;42382;53.210;5.772;2023-05-10T08:40:19;13.60;91.30
56478;DHT22;42382;53.210;5.772;2023-05-10T08:42:54;13.70;91.60
56478;DHT22;42382;53.210;5.772;2023-05-10T08:45:23;13.90;91.60
56478;DHT22;42382;53.210;5.772;2023-05-10T08:47:49;13.90;91.50
56478;DHT22;42382;53.210;5.772;2023-05-10T08:50:17;13.80;91.00
56478;DHT22;42382;53.210;5.772;2023-05-10T08:52:46;13.90;91.30
56478;DHT22;42382;53.210;5.772;2023-05-10T08:55:14;13.90;90.90
56478;DHT22;42382;53.210;5.772;2023-05-10T08:57:40;14.00;91.10
56478;DHT22;42382;53.210;5.772;2023-05-10T09:00:06;14.00;91.10
56478;DHT22;42382;53.210;5.772;2023-05-10T09:02:34;14.10;90.90
56478;DHT22;42382;53.210;5.772;2023-05-10T09:05:00;14.10;91.00
56478;DHT22;42382;53.210;5.772;2023-05-10T09:07:26;14.20;90.70
56478;DHT22;42382;53.210;5.772;2023-05-10T09:09:52;14.10;90.50
56478;DHT22;42382;53.210;5.772;2023-05-10T09:12:18;14.20;90.70
56478;DHT22;42382;53.210;5.772;2023-05-10T09:14:44;14.30;90.90
56478;DHT22;42382;53.210;5.772;2023-05-10T09:17:11;14.30;90.90
56478;DHT22;42382;53.210;5.772;2023-05-10T09:19:36;14.40;90.30
56478;DHT22;42382;53.210;5.772;2023-05-10T09:22:03;14.40;90.40
56478;DHT22;42382;53.210;5.772;2023-05-10T09:24:29;14.40;90.00
56478;DHT22;42382;53.210;5.772;2023-05-10T09:26:56;14.30;90.00
56478;DHT22;42382;53.210;5.772;2023-05-10T09:29:22;14.30;90.00
56478;DHT22;42382;53.210;5.772;2023-05-10T09:31:50;14.20;89.30
56478;DHT22;42382;53.210;5.772;2023-05-10T09:34:31;14.30;89.60
56478;DHT22;42382;53.210;5.772;2023-05-10T09:37:00;14.30;89.80
56478;DHT22;42382;53.210;5.772;2023-05-10T09:39:33;14.30;89.80
56478;DHT22;42382;53.210;5.772;2023-05-10T09:42:04;14.30;89.70
56478;DHT22;42382;53.210;5.772;2023-05-10T09:44:31;14.30;89.60
56478;DHT22;42382;53.210;5.772;2023-05-10T09:46:57;14.30;89.50
56478;DHT22;42382;53.210;5.772;2023-05-10T09:49:22;14.40;89.50
56478;DHT22;42382;53.210;5.772;2023-05-10T09:52:00;14.40;89.10
56478;DHT22;42382;53.210;5.772;2023-05-10T09:54:26;14.50;89.40
56478;DHT22;42382;53.210;5.772;2023-05-10T09:56:51;14.50;89.40
56478;DHT22;42382;53.210;5.772;2023-05-10T09:59:18;14.50;89.10
56478;DHT22;42382;53.210;5.772;2023-05-10T10:01:59;14.60;89.20
56478;DHT22;42382;53.210;5.772;2023-05-10T10:04:25;14.70;89.30
56478;DHT22;42382;53.210;5.772;2023-05-10T10:07:02;14.60;88.80
56478;DHT22;42382;53.210;5.772;2023-05-10T10:09:28;14.60;88.90
56478;DHT22;42382;53.210;5.772;2023-05-10T10:11:54;14.60;88.40
56478;DHT22;42382;53.210;5.772;2023-05-10T10:14:20;14.60;88.70
56478;DHT22;42382;53.210;5.772;2023-05-10T10:16:47;14.50;88.50
56478;DHT22;42382;53.210;5.772;2023-05-10T10:19:14;14.50;88.60
56478;DHT22;42382;53.210;5.772;2023-05-10T10:21:40;14.60;88.60
56478;DHT22;42382;53.210;5.772;2023-05-10T10:24:06;14.70;88.80
56478;DHT22;42382;53.210;5.772;2023-05-10T10:26:35;14.80;88.70
56478;DHT22;42382;53.210;5.772;2023-05-10T10:29:16;15.00;88.80
56478;DHT22;42382;53.210;5.772;2023-05-10T10:34:29;15.40;88.70
56478;DHT22;42382;53.210;5.772;2023-05-10T10:36:56;15.60;88.20
56478;DHT22;42382;53.210;5.772;2023-05-10T10:39:26;15.80;87.90
56478;DHT22;42382;53.210;5.772;2023-05-10T10:41:58;15.80;86.80
56478;DHT22;42382;53.210;5.772;2023-05-10T10:47:07;16.00;86.50
56478;DHT22;42382;53.210;5.772;2023-05-10T10:52:37;16.20;85.00
56478;DHT22;42382;53.210;5.772;2023-05-10T10:55:04;16.30;84.80
56478;DHT22;42382;53.210;5.772;2023-05-10T10:57:33;16.30;83.90
56478;DHT22;42382;53.210;5.772;2023-05-10T11:00:34;16.30;84.60
56478;DHT22;42382;53.210;5.772;2023-05-10T11:03:08;16.40;83.20
56478;DHT22;42382;53.210;5.772;2023-05-10T11:05:39;16.40;83.80
56478;DHT22;42382;53.210;5.772;2023-05-10T11:19:03;16.60;82.60
56478;DHT22;42382;53.210;5.772;2023-05-10T11:21:29;16.70;82.60
56478;DHT22;42382;53.210;5.772;2023-05-10T11:23:57;16.80;80.70
56478;DHT22;42382;53.210;5.772;2023-05-10T11:26:30;16.60;81.60
56478;DHT22;42382;53.210;5.772;2023-05-10T11:28:57;16.60;81.10
56478;DHT22;42382;53.210;5.772;2023-05-10T11:31:24;16.50;80.80
56478;DHT22;42382;53.210;5.772;2023-05-10T11:33:56;16.60;81.40
56478;DHT22;42382;53.210;5.772;2023-05-10T11:36:34;16.70;81.60
56478;DHT22;42382;53.210;5.772;2023-05-10T11:39:01;16.70;80.80
56478;DHT22;42382;53.210;5.772;2023-05-10T11:41:29;16.80;81.00
56478;DHT22;42382;53.210;5.772;2023-05-10T11:43:56;16.90;80.90
56478;DHT22;42382;53.210;5.772;2023-05-10T11:46:24;17.00;80.40
56478;DHT22;42382;53.210;5.772;2023-05-10T11:48:51;17.00;79.70
56478;DHT22;42382;53.210;5.772;2023-05-10T11:51:22;17.10;80.30
56478;DHT22;42382;53.210;5.772;2023-05-10T11:53:52;17.10;79.40
56478;DHT22;42382;53.210;5.772;2023-05-10T11:56:18;17.10;78.60
56478;DHT22;42382;53.210;5.772;2023-05-10T11:58:44;17.10;79.10
56478;DHT22;42382;53.210;5.772;2023-05-10T12:01:10;17.30;79.60
56478;DHT22;42382;53.210;5.772;2023-05-10T12:03:36;17.40;78.90
56478;DHT22;42382;53.210;5.772;2023-05-10T12:06:03;17.50;78.80
56478;DHT22;42382;53.210;5.772;2023-05-10T12:08:29;17.60;79.10
56478;DHT22;42382;53.210;5.772;2023-05-10T12:11:16;17.70;78.90
56478;DHT22;42382;53.210;5.772;2023-05-10T12:13:43;17.70;77.30
56478;DHT22;42382;53.210;5.772;2023-05-10T12:16:24;17.70;77.70
56478;DHT22;42382;53.210;5.772;2023-05-10T12:18:57;17.80;77.30
56478;DHT22;42382;53.210;5.772;2023-05-10T12:21:23;17.80;76.60
56478;DHT22;42382;53.210;5.772;2023-05-10T12:23:54;17.90;76.80
56478;DHT22;42382;53.210;5.772;2023-05-10T12:26:28;17.90;75.20
56478;DHT22;42382;53.210;5.772;2023-05-10T12:28:54;17.70;76.00
56478;DHT22;42382;53.210;5.772;2023-05-10T12:31:20;17.90;76.80
56478;DHT22;42382;53.210;5.772;2023-05-10T12:33:46;18.00;75.70
56478;DHT22;42382;53.210;5.772;2023-05-10T12:36:15;18.00;76.10
56478;DHT22;42382;53.210;5.772;2023-05-10T12:38:42;18.10;76.20
56478;DHT22;42382;53.210;5.772;2023-05-10T12:41:18;18.00;75.40
56478;DHT22;42382;53.210;5.772;2023-05-10T12:43:44;17.90;75.40
56478;DHT22;42382;53.210;5.772;2023-05-10T12:46:12;17.90;75.90
56478;DHT22;42382;53.210;5.772;2023-05-10T12:48:39;17.90;76.10
56478;DHT22;42382;53.210;5.772;2023-05-10T12:51:06;17.80;75.80
56478;DHT22;42382;53.210;5.772;2023-05-10T12:53:35;17.90;76.10
56478;DHT22;42382;53.210;5.772;2023-05-10T12:56:01;17.80;74.50
56478;DHT22;42382;53.210;5.772;2023-05-10T12:58:26;17.90;75.50
56478;DHT22;42382;53.210;5.772;2023-05-10T13:00:52;17.90;75.70
56478;DHT22;42382;53.210;5.772;2023-05-10T13:03:18;17.90;75.10
56478;DHT22;42382;53.210;5.772;2023-05-10T13:05:44;17.90;75.10
56478;DHT22;42382;53.210;5.772;2023-05-10T13:08:09;18.00;75.50
56478;DHT22;42382;53.210;5.772;2023-05-10T13:10:35;18.00;75.30
56478;DHT22;42382;53.210;5.772;2023-05-10T13:13:01;18.00;75.40
56478;DHT22;42382;53.210;5.772;2023-05-10T13:15:26;18.00;75.20
56478;DHT22;42382;53.210;5.772;2023-05-10T13:17:53;18.00;74.70
56478;DHT22;42382;53.210;5.772;2023-05-10T13:20:19;18.00;75.20
56478;DHT22;42382;53.210;5.772;2023-05-10T13:22:45;17.90;75.20
56478;DHT22;42382;53.210;5.772;2023-05-10T13:25:11;17.90;75.30
56478;DHT22;42382;53.210;5.772;2023-05-10T13:27:40;18.00;75.60
56478;DHT22;42382;53.210;5.772;2023-05-10T13:30:09;18.00;74.90
56478;DHT22;42382;53.210;5.772;2023-05-10T13:32:37;18.10;74.60
56478;DHT22;42382;53.210;5.772;2023-05-10T13:35:03;18.30;73.80
56478;DHT22;42382;53.210;5.772;2023-05-10T13:37:30;18.40;72.90
56478;DHT22;42382;53.210;5.772;2023-05-10T13:39:55;18.40;73.50
56478;DHT22;42382;53.210;5.772;2023-05-10T13:42:22;18.40;73.70
56478;DHT22;42382;53.210;5.772;2023-05-10T13:44:48;18.40;73.70
56478;DHT22;42382;53.210;5.772;2023-05-10T13:47:14;18.30;73.80
56478;DHT22;42382;53.210;5.772;2023-05-10T13:49:40;18.30;74.00
56478;DHT22;42382;53.210;5.772;2023-05-10T13:52:05;18.20;73.80
56478;DHT22;42382;53.210;5.772;2023-05-10T13:54:36;18.10;74.20
56478;DHT22;42382;53.210;5.772;2023-05-10T13:57:02;18.10;74.60
56478;DHT22;42382;53.210;5.772;2023-05-10T13:59:28;18.00;74.10
56478;DHT22;42382;53.210;5.772;2023-05-10T14:01:54;18.00;74.80
56478;DHT22;42382;53.210;5.772;2023-05-10T14:04:20;18.00;74.10
56478;DHT22;42382;53.210;5.772;2023-05-10T14:06:46;18.20;73.70
56478;DHT22;42382;53.210;5.772;2023-05-10T14:09:12;18.20;74.20
56478;DHT22;42382;53.210;5.772;2023-05-10T14:11:38;18.20;74.10
56478;DHT22;42382;53.210;5.772;2023-05-10T14:14:07;18.10;74.00
56478;DHT22;42382;53.210;5.772;2023-05-10T14:16:33;18.00;73.90
56478;DHT22;42382;53.210;5.772;2023-05-10T14:19:02;18.10;74.60
56478;DHT22;42382;53.210;5.772;2023-05-10T14:21:28;18.20;74.40
56478;DHT22;42382;53.210;5.772;2023-05-10T14:23:57;18.10;73.60
56478;DHT22;42382;53.210;5.772;2023-05-10T14:26:23;17.90;74.20
56478;DHT22;42382;53.210;5.772;2023-05-10T14:28:48;18.00;75.30
56478;DHT22;42382;53.210;5.772;2023-05-10T14:31:16;18.00;74.90
56478;DHT22;42382;53.210;5.772;2023-05-10T14:33:47;18.00;74.30
56478;DHT22;42382;53.210;5.772;2023-05-10T14:36:13;18.00;74.60
56478;DHT22;42382;53.210;5.772;2023-05-10T14:38:39;18.10;75.00
56478;DHT22;42382;53.210;5.772;2023-05-10T14:41:05;18.20;74.30
56478;DHT22;42382;53.210;5.772;2023-05-10T14:43:31;18.20;73.90
56478;DHT22;42382;53.210;5.772;2023-05-10T14:45:57;18.10;74.40
56478;DHT22;42382;53.210;5.772;2023-05-10T14:48:22;18.00;74.20
56478;DHT22;42382;53.210;5.772;2023-05-10T14:50:48;17.90;74.00
56478;DHT22;42382;53.210;5.772;2023-05-10T14:53:15;17.80;74.30
56478;DHT22;42382;53.210;5.772;2023-05-10T14:55:41;17.80;74.70
56478;DHT22;42382;53.210;5.772;2023-05-10T14:58:06;17.70;75.10
56478;DHT22;42382;53.210;5.772;2023-05-10T15:00:32;17.60;74.60
56478;DHT22;42382;53.210;5.772;2023-05-10T15:02:58;17.60;74.90
56478;DHT22;42382;53.210;5.772;2023-05-10T15:05:26;17.50;74.80
56478;DHT22;42382;53.210;5.772;2023-05-10T15:07:52;17.50;74.80
56478;DHT22;42382;53.210;5.772;2023-05-10T15:10:18;17.60;74.60
56478;DHT22;42382;53.210;5.772;2023-05-10T15:12:43;17.50;74.50
56478;DHT22;42382;53.210;5.772;2023-05-10T15:15:09;17.40;74.60
56478;DHT22;42382;53.210;5.772;2023-05-10T15:17:35;17.30;75.10
56478;DHT22;42382;53.210;5.772;2023-05-10T15:20:01;17.30;75.50
56478;DHT22;42382;53.210;5.772;2023-05-10T15:22:29;17.10;74.80
56478;DHT22;42382;53.210;5.772;2023-05-10T15:24:54;16.90;74.40
56478;DHT22;42382;53.210;5.772;2023-05-10T15:27:20;16.70;75.00
56478;DHT22;42382;53.210;5.772;2023-05-10T15:29:45;16.70;75.70
56478;DHT22;42382;53.210;5.772;2023-05-10T15:32:12;16.70;76.40
56478;DHT22;42382;53.210;5.772;2023-05-10T15:34:37;16.60;76.00
56478;DHT22;42382;53.210;5.772;2023-05-10T15:37:03;16.60;76.40
56478;DHT22;42382;53.210;5.772;2023-05-10T15:39:29;16.50;76.90
56478;DHT22;42382;53.210;5.772;2023-05-10T15:41:54;16.50;76.80
56478;DHT22;42382;53.210;5.772;2023-05-10T15:44:20;16.50;76.70
56478;DHT22;42382;53.210;5.772;2023-05-10T15:46:46;16.50;76.70
56478;DHT22;42382;53.210;5.772;2023-05-10T15:49:11;16.50;76.90
56478;DHT22;42382;53.210;5.772;2023-05-10T15:51:37;16.50;76.80
56478;DHT22;42382;53.210;5.772;2023-05-10T15:54:03;16.50;76.80
56478;DHT22;42382;53.210;5.772;2023-05-10T15:56:31;16.50;76.90
56478;DHT22;42382;53.210;5.772;2023-05-10T15:58:58;16.60;76.80
56478;DHT22;42382;53.210;5.772;2023-05-10T16:01:24;16.60;76.90
56478;DHT22;42382;53.210;5.772;2023-05-10T16:03:49;16.60;76.70
56478;DHT22;42382;53.210;5.772;2023-05-10T16:06:15;16.60;76.90
56478;DHT22;42382;53.210;5.772;2023-05-10T16:08:41;16.60;76.70
56478;DHT22;42382;53.210;5.772;2023-05-10T16:11:06;16.60;76.80
56478;DHT22;42382;53.210;5.772;2023-05-10T16:13:33;16.60;77.00
56478;DHT22;42382;53.210;5.772;2023-05-10T16:16:05;16.50;77.10
56478;DHT22;42382;53.210;5.772;2023-05-10T16:18:34;16.40;77.30
56478;DHT22;42382;53.210;5.772;2023-05-10T16:21:00;16.40;77.40
56478;DHT22;42382;53.210;5.772;2023-05-10T16:23:26;16.50;77.60
56478;DHT22;42382;53.210;5.772;2023-05-10T16:25:55;16.40;77.60
56478;DHT22;42382;53.210;5.772;2023-05-10T16:28:21;16.40;77.70
56478;DHT22;42382;53.210;5.772;2023-05-10T16:30:47;16.30;77.70
56478;DHT22;42382;53.210;5.772;2023-05-10T16:33:13;16.30;77.90
56478;DHT22;42382;53.210;5.772;2023-05-10T16:35:44;16.20;77.90
56478;DHT22;42382;53.210;5.772;2023-05-10T16:38:10;16.10;77.90
56478;DHT22;42382;53.210;5.772;2023-05-10T16:40:35;16.00;78.20